sensor_id;sensor_type;location;lat;lon;timestamp;pressure;altitude;pressure_sealevel;temperature;humidity
28510;BME280;15723;55.684;37.928;2023-04-19T00:01:38;101020.63;;;10.74;39.97
28510;BME280;15723;55.684;37.928;2023-04-19T00:04:04;101021.09;;;10.84;39.87
28510;BME280;15723;55.684;37.928;2023-04-19T00:06:30;101015.31;;;10.33;40.68
28510;BME280;15723;55.684;37.928;2023-04-19T00:08:57;101022.41;;;10.56;40.25
28510;BME280;15723;55.684;37.928;2023-04-19T00:11:23;101018.88;;;10.73;39.91
28510;BME280;15723;55.684;37.928;2023-04-19T00:13:50;101018.81;;;10.75;39.98
28510;BME280;15723;55.684;37.928;2023-04-19T00:16:16;101022.78;;;10.86;39.58
28510;BME280;15723;55.684;37.928;2023-04-19T00:18:42;101022.09;;;10.62;40.17
28510;BME280;15723;55.684;37.928;2023-04-19T00:21:09;101022.47;;;10.55;40.23
28510;BME280;15723;55.684;37.928;2023-04-19T00:23:36;101026.81;;;10.78;39.95
28510;BME280;15723;55.684;37.928;2023-04-19T00:26:03;101029.66;;;10.75;39.80
28510;BME280;15723;55.684;37.928;2023-04-19T00:28:29;101020.41;;;10.60;40.20
28510;BME280;15723;55.684;37.928;2023-04-19T00:30:56;101021.63;;;10.14;40.78
28510;BME280;15723;55.684;37.928;2023-04-19T00:33:22;101024.47;;;10.31;40.88
28510;BME280;15723;55.684;37.928;2023-04-19T00:35:48;101023.78;;;10.65;40.33
28510;BME280;15723;55.684;37.928;2023-04-19T00:38:15;101026.91;;;10.17;41.11
28510;BME280;15723;55.684;37.928;2023-04-19T00:40:44;101029.03;;;10.30;40.61
28510;BME280;15723;55.684;37.928;2023-04-19T00:43:16;101032.91;;;10.25;40.55
28510;BME280;15723;55.684;37.928;2023-04-19T00:45:44;101031.06;;;10.25;40.50
28510;BME280;15723;55.684;37.928;2023-04-19T00:48:12;101031.53;;;10.35;40.12
28510;BME280;15723;55.684;37.928;2023-04-19T00:50:40;101023.81;;;10.26;40.54
28510;BME280;15723;55.684;37.928;2023-04-19T00:53:07;101031.06;;;10.25;40.34
28510;BME280;15723;55.684;37.928;2023-04-19T00:55:33;101024.75;;;10.25;40.19
28510;BME280;15723;55.684;37.928;2023-04-19T00:58:00;101026.22;;;10.52;39.61
28510;BME280;15723;55.684;37.928;2023-04-19T01:00:26;101025.97;;;10.18;40.15
28510;BME280;15723;55.684;37.928;2023-04-19T01:02:52;101034.22;;;10.55;39.78
28510;BME280;15723;55.684;37.928;2023-04-19T01:05:20;101030.66;;;10.14;40.27
28510;BME280;15723;55.684;37.928;2023-04-19T01:07:46;101030.19;;;10.45;39.87
28510;BME280;15723;55.684;37.928;2023-04-19T01:10:13;101031.81;;;10.29;40.14
28510;BME280;15723;55.684;37.928;2023-04-19T01:12:40;101024.91;;;10.22;40.23
28510;BME280;15723;55.684;37.928;2023-04-19T01:15:07;101024.06;;;10.20;40.27
28510;BME280;15723;55.684;37.928;2023-04-19T01:17:33;101030.84;;;10.10;40.37
28510;BME280;15723;55.684;37.928;2023-04-19T01:20:01;101020.44;;;10.21;40.28
28510;BME280;15723;55.684;37.928;2023-04-19T01:22:30;101030.50;;;9.97;40.70
28510;BME280;15723;55.684;37.928;2023-04-19T01:24:57;101031.44;;;9.96;40.74
28510;BME280;15723;55.684;37.928;2023-04-19T01:27:24;101033.34;;;9.94;40.57
28510;BME280;15723;55.684;37.928;2023-04-19T01:29:50;101033.13;;;10.20;40.18
28510;BME280;15723;55.684;37.928;2023-04-19T01:32:16;101029.69;;;9.75;40.96
28510;BME280;15723;55.684;37.928;2023-04-19T01:34:42;101033.00;;;9.81;41.06
28510;BME280;15723;55.684;37.928;2023-04-19T01:37:09;101026.22;;;9.91;40.76
28510;BME280;15723;55.684;37.928;2023-04-19T01:39:35;101031.66;;;10.12;40.43
28510;BME280;15723;55.684;37.928;2023-04-19T01:42:01;101031.84;;;9.87;40.74
28510;BME280;15723;55.684;37.928;2023-04-19T01:44:29;101031.88;;;10.07;40.75
28510;BME280;15723;55.684;37.928;2023-04-19T01:46:55;101032.75;;;9.87;41.24
28510;BME280;15723;55.684;37.928;2023-04-19T01:49:21;101033.63;;;10.08;40.56
28510;BME280;15723;55.684;37.928;2023-04-19T01:51:48;101019.91;;;9.91;40.86
28510;BME280;15723;55.684;37.928;2023-04-19T01:54:14;101034.03;;;9.99;40.92
28510;BME280;15723;55.684;37.928;2023-04-19T01:56:40;101028.94;;;10.12;40.61
28510;BME280;15723;55.684;37.928;2023-04-19T01:59:07;101029.56;;;9.78;41.14
28510;BME280;15723;55.684;37.928;2023-04-19T02:01:33;101021.22;;;9.82;41.25
28510;BME280;15723;55.684;37.928;2023-04-19T02:04:01;101030.22;;;9.83;41.43
28510;BME280;15723;55.684;37.928;2023-04-19T02:06:27;101026.72;;;9.81;41.13
28510;BME280;15723;55.684;37.928;2023-04-19T02:08:53;101029.53;;;9.98;40.89
28510;BME280;15723;55.684;37.928;2023-04-19T02:11:20;101031.44;;;9.96;41.05
28510;BME280;15723;55.684;37.928;2023-04-19T02:13:46;101031.44;;;9.96;40.88
28510;BME280;15723;55.684;37.928;2023-04-19T02:16:13;101026.78;;;9.79;41.33
28510;BME280;15723;55.684;37.928;2023-04-19T02:18:39;101026.28;;;9.90;41.19
28510;BME280;15723;55.684;37.928;2023-04-19T02:21:08;101027.03;;;9.93;40.91
28510;BME280;15723;55.684;37.928;2023-04-19T02:23:34;101037.16;;;9.90;41.14
28510;BME280;15723;55.684;37.928;2023-04-19T02:26:01;101033.38;;;9.52;41.92
28510;BME280;15723;55.684;37.928;2023-04-19T02:28:29;101035.00;;;9.56;41.61
28510;BME280;15723;55.684;37.928;2023-04-19T02:30:56;101043.59;;;9.87;41.20
28510;BME280;15723;55.684;37.928;2023-04-19T02:33:24;101041.16;;;9.81;41.02
28510;BME280;15723;55.684;37.928;2023-04-19T02:35:52;101045.16;;;9.51;41.57
28510;BME280;15723;55.684;37.928;2023-04-19T02:38:18;101043.63;;;9.65;41.58
28510;BME280;15723;55.684;37.928;2023-04-19T02:40:45;101039.00;;;9.47;42.03
28510;BME280;15723;55.684;37.928;2023-04-19T02:43:11;101054.16;;;9.51;41.98
28510;BME280;15723;55.684;37.928;2023-04-19T02:45:37;101048.41;;;9.81;41.59
28510;BME280;15723;55.684;37.928;2023-04-19T02:48:04;101048.53;;;9.78;41.63
28510;BME280;15723;55.684;37.928;2023-04-19T02:50:31;101057.28;;;9.84;41.83
28510;BME280;15723;55.684;37.928;2023-04-19T02:52:58;101047.75;;;9.54;42.26
28510;BME280;15723;55.684;37.928;2023-04-19T02:55:26;101052.41;;;9.72;42.27
28510;BME280;15723;55.684;37.928;2023-04-19T02:58:03;101047.59;;;9.57;42.46
28510;BME280;15723;55.684;37.928;2023-04-19T03:00:30;101046.59;;;9.59;42.52
28510;BME280;15723;55.684;37.928;2023-04-19T03:03:06;101049.34;;;9.37;42.67
28510;BME280;15723;55.684;37.928;2023-04-19T03:05:33;101050.28;;;9.79;41.93
28510;BME280;15723;55.684;37.928;2023-04-19T03:07:59;101048.00;;;9.26;42.79
28510;BME280;15723;55.684;37.928;2023-04-19T03:10:26;101047.19;;;9.67;42.33
28510;BME280;15723;55.684;37.928;2023-04-19T03:12:52;101056.44;;;9.40;42.58
28510;BME280;15723;55.684;37.928;2023-04-19T03:15:19;101054.91;;;9.77;41.84
28510;BME280;15723;55.684;37.928;2023-04-19T03:17:46;101051.94;;;9.83;41.72
28510;BME280;15723;55.684;37.928;2023-04-19T03:20:12;101050.28;;;9.99;41.50
28510;BME280;15723;55.684;37.928;2023-04-19T03:22:39;101050.38;;;9.97;41.33
28510;BME280;15723;55.684;37.928;2023-04-19T03:25:06;101048.59;;;9.96;41.48
28510;BME280;15723;55.684;37.928;2023-04-19T03:27:34;101056.91;;;10.34;40.70
28510;BME280;15723;55.684;37.928;2023-04-19T03:30:01;101061.59;;;10.51;40.27
28510;BME280;15723;55.684;37.928;2023-04-19T03:32:31;101063.28;;;10.53;40.20
28510;BME280;15723;55.684;37.928;2023-04-19T03:34:57;101060.50;;;10.34;40.26
28510;BME280;15723;55.684;37.928;2023-04-19T03:37:23;101067.28;;;10.45;40.30
28510;BME280;15723;55.684;37.928;2023-04-19T03:39:50;101071.41;;;10.33;40.04
28510;BME280;15723;55.684;37.928;2023-04-19T03:42:23;101060.69;;;10.10;40.34
28510;BME280;15723;55.684;37.928;2023-04-19T03:45:12;101066.16;;;10.69;39.74
28510;BME280;15723;55.684;37.928;2023-04-19T03:47:43;101068.34;;;10.61;39.51
28510;BME280;15723;55.684;37.928;2023-04-19T03:50:11;101067.44;;;10.81;39.14
28510;BME280;15723;55.684;37.928;2023-04-19T03:52:39;101056.19;;;11.26;38.36
28510;BME280;15723;55.684;37.928;2023-04-19T03:55:06;101065.81;;;10.95;38.84
28510;BME280;15723;55.684;37.928;2023-04-19T03:57:39;101069.38;;;11.15;38.21
28510;BME280;15723;55.684;37.928;2023-04-19T04:00:32;101058.19;;;11.76;37.12
28510;BME280;15723;55.684;37.928;2023-04-19T04:03:00;101062.44;;;11.64;37.13
28510;BME280;15723;55.684;37.928;2023-04-19T04:05:26;101059.50;;;13.04;35.03
28510;BME280;15723;55.684;37.928;2023-04-19T04:07:53;101064.56;;;12.28;35.64
28510;BME280;15723;55.684;37.928;2023-04-19T04:10:22;101047.41;;;13.41;34.41
28510;BME280;15723;55.684;37.928;2023-04-19T04:12:48;101056.84;;;14.84;32.17
28510;BME280;15723;55.684;37.928;2023-04-19T04:15:21;101055.00;;;14.84;31.36
28510;BME280;15723;55.684;37.928;2023-04-19T04:17:51;101047.53;;;15.56;30.67
28510;BME280;15723;55.684;37.928;2023-04-19T04:20:19;101058.13;;;14.92;31.04
28510;BME280;15723;55.684;37.928;2023-04-19T04:22:46;101050.66;;;15.91;30.24
28510;BME280;15723;55.684;37.928;2023-04-19T04:25:15;101048.53;;;16.21;29.74
28510;BME280;15723;55.684;37.928;2023-04-19T04:27:45;101051.25;;;15.69;29.99
28510;BME280;15723;55.684;37.928;2023-04-19T04:30:17;101047.16;;;16.67;28.89
28510;BME280;15723;55.684;37.928;2023-04-19T04:32:44;101045.91;;;16.07;29.53
28510;BME280;15723;55.684;37.928;2023-04-19T04:35:12;101040.22;;;17.48;27.85
28510;BME280;15723;55.684;37.928;2023-04-19T04:37:51;101048.88;;;17.06;28.22
28510;BME280;15723;55.684;37.928;2023-04-19T04:40:19;101039.41;;;19.65;25.67
28510;BME280;15723;55.684;37.928;2023-04-19T04:42:46;101041.75;;;17.53;27.78
28510;BME280;15723;55.684;37.928;2023-04-19T04:45:16;101046.53;;;18.09;27.25
28510;BME280;15723;55.684;37.928;2023-04-19T04:47:44;101045.00;;;17.94;27.42
28510;BME280;15723;55.684;37.928;2023-04-19T04:50:14;101039.75;;;18.26;27.43
28510;BME280;15723;55.684;37.928;2023-04-19T04:52:51;101044.59;;;20.43;24.64
28510;BME280;15723;55.684;37.928;2023-04-19T04:55:26;101040.19;;;20.20;24.86
28510;BME280;15723;55.684;37.928;2023-04-19T04:57:52;101048.81;;;19.51;25.86
28510;BME280;15723;55.684;37.928;2023-04-19T05:00:48;101047.84;;;21.30;23.62
28510;BME280;15723;55.684;37.928;2023-04-19T05:03:14;101050.31;;;20.72;24.02
28510;BME280;15723;55.684;37.928;2023-04-19T05:05:47;101059.84;;;19.18;25.58
28510;BME280;15723;55.684;37.928;2023-04-19T05:08:14;101059.59;;;19.32;25.84
28510;BME280;15723;55.684;37.928;2023-04-19T05:10:40;101059.34;;;19.57;25.01
28510;BME280;15723;55.684;37.928;2023-04-19T05:13:07;101057.97;;;20.69;23.95
28510;BME280;15723;55.684;37.928;2023-04-19T05:15:33;101065.97;;;20.72;24.40
28510;BME280;15723;55.684;37.928;2023-04-19T05:17:59;101057.56;;;19.99;24.63
28510;BME280;15723;55.684;37.928;2023-04-19T05:20:26;101057.66;;;20.41;24.53
28510;BME280;15723;55.684;37.928;2023-04-19T05:23:01;101058.28;;;22.63;22.50
28510;BME280;15723;55.684;37.928;2023-04-19T05:25:31;101057.00;;;21.00;23.73
28510;BME280;15723;55.684;37.928;2023-04-19T05:27:58;101064.28;;;20.80;24.06
28510;BME280;15723;55.684;37.928;2023-04-19T05:30:28;101061.94;;;21.87;22.45
28510;BME280;15723;55.684;37.928;2023-04-19T05:32:55;101062.38;;;22.69;22.06
28510;BME280;15723;55.684;37.928;2023-04-19T05:35:21;101059.09;;;22.07;22.92
28510;BME280;15723;55.684;37.928;2023-04-19T05:37:48;101059.59;;;21.82;23.12
28510;BME280;15723;55.684;37.928;2023-04-19T05:40:14;101052.31;;;21.91;23.06
28510;BME280;15723;55.684;37.928;2023-04-19T05:42:40;101057.50;;;21.55;23.55
28510;BME280;15723;55.684;37.928;2023-04-19T05:45:08;101062.31;;;23.07;21.68
28510;BME280;15723;55.684;37.928;2023-04-19T05:47:35;101057.41;;;24.01;21.20
28510;BME280;15723;55.684;37.928;2023-04-19T05:50:31;101060.50;;;24.16;21.00
28510;BME280;15723;55.684;37.928;2023-04-19T05:53:16;101061.50;;;24.69;20.33
28510;BME280;15723;55.684;37.928;2023-04-19T05:55:43;101075.03;;;22.62;22.71
28510;BME280;15723;55.684;37.928;2023-04-19T05:58:10;101057.16;;;25.18;20.27
28510;BME280;15723;55.684;37.928;2023-04-19T06:00:36;101054.69;;;25.99;19.61
28510;BME280;15723;55.684;37.928;2023-04-19T06:03:08;101057.88;;;26.94;18.88
28510;BME280;15723;55.684;37.928;2023-04-19T06:05:35;101056.66;;;26.72;18.70
28510;BME280;15723;55.684;37.928;2023-04-19T06:08:01;101062.31;;;25.89;19.69
28510;BME280;15723;55.684;37.928;2023-04-19T06:10:27;101064.84;;;26.65;18.55
28510;BME280;15723;55.684;37.928;2023-04-19T06:12:53;101062.00;;;27.22;18.12
28510;BME280;15723;55.684;37.928;2023-04-19T06:15:20;101051.41;;;27.09;18.75
28510;BME280;15723;55.684;37.928;2023-04-19T06:17:46;101059.16;;;27.78;17.81
28510;BME280;15723;55.684;37.928;2023-04-19T06:20:12;101053.38;;;26.76;18.90
28510;BME280;15723;55.684;37.928;2023-04-19T06:22:43;101066.59;;;24.99;19.96
28510;BME280;15723;55.684;37.928;2023-04-19T06:25:10;101060.97;;;27.07;17.97
28510;BME280;15723;55.684;37.928;2023-04-19T06:27:36;101065.03;;;24.79;19.95
28510;BME280;15723;55.684;37.928;2023-04-19T06:30:03;101058.91;;;25.61;19.46
28510;BME280;15723;55.684;37.928;2023-04-19T06:32:34;101060.44;;;27.12;17.45
28510;BME280;15723;55.684;37.928;2023-04-19T06:35:00;101059.97;;;25.26;19.17
28510;BME280;15723;55.684;37.928;2023-04-19T06:37:29;101059.25;;;26.16;18.39
28510;BME280;15723;55.684;37.928;2023-04-19T06:39:55;101071.41;;;24.71;18.98
28510;BME280;15723;55.684;37.928;2023-04-19T06:42:22;101052.03;;;28.52;16.34
28510;BME280;15723;55.684;37.928;2023-04-19T06:44:50;101063.38;;;27.74;16.54
28510;BME280;15723;55.684;37.928;2023-04-19T06:47:16;101054.53;;;28.24;16.30
28510;BME280;15723;55.684;37.928;2023-04-19T06:49:42;101065.97;;;25.90;17.71
28510;BME280;15723;55.684;37.928;2023-04-19T06:52:09;101061.50;;;25.20;18.89
28510;BME280;15723;55.684;37.928;2023-04-19T06:54:35;101069.16;;;26.11;17.57
28510;BME280;15723;55.684;37.928;2023-04-19T06:57:01;101064.72;;;27.38;16.66
28510;BME280;15723;55.684;37.928;2023-04-19T06:59:28;101061.56;;;26.62;16.88
28510;BME280;15723;55.684;37.928;2023-04-19T07:01:56;101058.91;;;26.03;17.00
28510;BME280;15723;55.684;37.928;2023-04-19T07:04:24;101067.69;;;24.88;18.01
28510;BME280;15723;55.684;37.928;2023-04-19T07:06:50;101059.94;;;25.18;17.61
28510;BME280;15723;55.684;37.928;2023-04-19T07:09:16;101068.66;;;23.82;18.78
28510;BME280;15723;55.684;37.928;2023-04-19T07:11:43;101052.59;;;25.85;17.25
28510;BME280;15723;55.684;37.928;2023-04-19T07:14:09;101059.84;;;24.05;18.81
28510;BME280;15723;55.684;37.928;2023-04-19T07:16:35;101075.50;;;23.60;19.15
28510;BME280;15723;55.684;37.928;2023-04-19T07:19:01;101047.94;;;25.60;17.49
28510;BME280;15723;55.684;37.928;2023-04-19T07:21:28;101038.41;;;26.61;16.66
28510;BME280;15723;55.684;37.928;2023-04-19T07:23:58;101052.16;;;26.55;16.56
28510;BME280;15723;55.684;37.928;2023-04-19T07:26:24;101043.91;;;24.60;17.62
28510;BME280;15723;55.684;37.928;2023-04-19T07:28:51;101049.78;;;25.77;16.58
28510;BME280;15723;55.684;37.928;2023-04-19T07:31:17;101047.75;;;24.41;17.74
28510;BME280;15723;55.684;37.928;2023-04-19T07:33:44;101032.25;;;25.00;17.55
28510;BME280;15723;55.684;37.928;2023-04-19T07:36:10;101042.38;;;25.60;16.58
28510;BME280;15723;55.684;37.928;2023-04-19T07:38:37;101044.22;;;24.83;16.74
28510;BME280;15723;55.684;37.928;2023-04-19T07:41:03;101051.06;;;24.27;17.17
28510;BME280;15723;55.684;37.928;2023-04-19T07:43:30;101042.84;;;25.81;16.53
28510;BME280;15723;55.684;37.928;2023-04-19T07:45:56;101051.63;;;26.35;15.90
28510;BME280;15723;55.684;37.928;2023-04-19T07:48:22;101039.56;;;25.94;16.61
28510;BME280;15723;55.684;37.928;2023-04-19T07:50:49;101060.94;;;25.43;16.78
28510;BME280;15723;55.684;37.928;2023-04-19T07:53:15;101049.38;;;26.55;15.76
28510;BME280;15723;55.684;37.928;2023-04-19T07:55:43;101041.22;;;26.45;15.70
28510;BME280;15723;55.684;37.928;2023-04-19T07:58:10;101041.34;;;26.27;15.97
28510;BME280;15723;55.684;37.928;2023-04-19T08:00:36;101053.78;;;25.74;16.53
28510;BME280;15723;55.684;37.928;2023-04-19T08:03:03;101045.09;;;25.77;15.95
28510;BME280;15723;55.684;37.928;2023-04-19T08:05:30;101035.78;;;27.79;14.98
28510;BME280;15723;55.684;37.928;2023-04-19T08:07:56;101047.38;;;27.12;15.33
28510;BME280;15723;55.684;37.928;2023-04-19T08:10:22;101048.75;;;28.48;14.60
28510;BME280;15723;55.684;37.928;2023-04-19T08:12:49;101040.34;;;28.33;14.58
28510;BME280;15723;55.684;37.928;2023-04-19T08:15:16;101042.88;;;24.87;16.72
28510;BME280;15723;55.684;37.928;2023-04-19T08:17:42;101046.31;;;22.92;18.38
28510;BME280;15723;55.684;37.928;2023-04-19T08:20:09;101052.47;;;22.76;18.86
28510;BME280;15723;55.684;37.928;2023-04-19T08:22:37;101047.06;;;22.74;18.27
28510;BME280;15723;55.684;37.928;2023-04-19T08:25:06;101034.47;;;22.14;19.48
28510;BME280;15723;55.684;37.928;2023-04-19T08:27:32;101041.81;;;22.91;18.68
28510;BME280;15723;55.684;37.928;2023-04-19T08:29:58;101054.41;;;22.18;19.58
28510;BME280;15723;55.684;37.928;2023-04-19T08:32:25;101040.28;;;22.40;19.12
28510;BME280;15723;55.684;37.928;2023-04-19T08:34:51;101042.41;;;20.88;20.29
28510;BME280;15723;55.684;37.928;2023-04-19T08:37:18;101035.22;;;21.28;19.98
28510;BME280;15723;55.684;37.928;2023-04-19T08:39:44;101056.69;;;20.73;20.61
28510;BME280;15723;55.684;37.928;2023-04-19T08:42:11;101031.47;;;20.15;21.36
28510;BME280;15723;55.684;37.928;2023-04-19T08:44:38;101043.53;;;20.55;21.03
28510;BME280;15723;55.684;37.928;2023-04-19T08:47:05;101036.53;;;19.98;21.98
28510;BME280;15723;55.684;37.928;2023-04-19T08:49:35;101032.88;;;19.66;21.89
28510;BME280;15723;55.684;37.928;2023-04-19T08:52:05;101039.91;;;20.02;21.92
28510;BME280;15723;55.684;37.928;2023-04-19T08:54:34;101036.69;;;20.18;21.79
28510;BME280;15723;55.684;37.928;2023-04-19T08:57:01;101031.38;;;20.88;21.55
28510;BME280;15723;55.684;37.928;2023-04-19T08:59:28;101039.72;;;20.47;21.59
28510;BME280;15723;55.684;37.928;2023-04-19T09:01:59;101036.59;;;19.22;22.59
28510;BME280;15723;55.684;37.928;2023-04-19T09:04:26;101039.13;;;19.02;22.78
28510;BME280;15723;55.684;37.928;2023-04-19T09:06:52;101030.41;;;19.63;22.21
28510;BME280;15723;55.684;37.928;2023-04-19T09:09:24;101028.69;;;19.28;22.55
28510;BME280;15723;55.684;37.928;2023-04-19T09:11:51;101026.13;;;20.02;22.49
28510;BME280;15723;55.684;37.928;2023-04-19T09:14:20;101018.66;;;20.76;22.26
28510;BME280;15723;55.684;37.928;2023-04-19T09:16:47;101017.13;;;20.21;23.00
28510;BME280;15723;55.684;37.928;2023-04-19T09:19:13;101015.50;;;20.50;22.28
28510;BME280;15723;55.684;37.928;2023-04-19T09:21:43;101022.44;;;20.13;22.56
28510;BME280;15723;55.684;37.928;2023-04-19T09:24:09;101026.03;;;19.60;22.75
28510;BME280;15723;55.684;37.928;2023-04-19T09:26:36;101023.16;;;19.51;23.51
28510;BME280;15723;55.684;37.928;2023-04-19T09:29:04;101011.50;;;19.47;22.91
28510;BME280;15723;55.684;37.928;2023-04-19T09:31:31;101013.56;;;20.09;22.75
28510;BME280;15723;55.684;37.928;2023-04-19T09:34:12;101006.00;;;19.90;22.53
28510;BME280;15723;55.684;37.928;2023-04-19T09:36:39;101003.44;;;19.78;22.94
28510;BME280;15723;55.684;37.928;2023-04-19T09:39:06;100996.13;;;19.56;23.38
28510;BME280;15723;55.684;37.928;2023-04-19T09:41:33;100996.41;;;19.42;23.62
28510;BME280;15723;55.684;37.928;2023-04-19T09:44:10;100994.31;;;19.98;22.84
28510;BME280;15723;55.684;37.928;2023-04-19T09:46:38;100999.22;;;19.94;22.48
28510;BME280;15723;55.684;37.928;2023-04-19T09:51:49;100984.81;;;19.70;23.29
28510;BME280;15723;55.684;37.928;2023-04-19T09:54:18;100987.19;;;19.75;23.92
28510;BME280;15723;55.684;37.928;2023-04-19T09:56:45;100981.94;;;19.72;23.45
28510;BME280;15723;55.684;37.928;2023-04-19T09:59:12;100994.72;;;19.61;24.11
28510;BME280;15723;55.684;37.928;2023-04-19T10:01:42;100988.13;;;19.53;24.74
28510;BME280;15723;55.684;37.928;2023-04-19T10:04:14;100994.38;;;19.44;24.22
28510;BME280;15723;55.684;37.928;2023-04-19T10:06:52;100992.97;;;19.60;24.04
28510;BME280;15723;55.684;37.928;2023-04-19T10:09:20;100979.56;;;20.20;23.18
28510;BME280;15723;55.684;37.928;2023-04-19T10:11:50;100980.44;;;20.20;23.15
28510;BME280;15723;55.684;37.928;2023-04-19T10:14:22;100976.59;;;20.53;22.77
28510;BME280;15723;55.684;37.928;2023-04-19T10:16:57;100976.84;;;19.88;23.88
28510;BME280;15723;55.684;37.928;2023-04-19T10:19:26;100974.28;;;19.96;23.74
28510;BME280;15723;55.684;37.928;2023-04-19T10:21:54;100966.72;;;19.45;24.33
28510;BME280;15723;55.684;37.928;2023-04-19T10:24:22;100968.78;;;19.64;24.22
28510;BME280;15723;55.684;37.928;2023-04-19T10:27:08;100961.84;;;19.81;23.82
28510;BME280;15723;55.684;37.928;2023-04-19T10:29:59;100966.56;;;19.58;24.20
28510;BME280;15723;55.684;37.928;2023-04-19T10:32:37;100970.81;;;19.08;24.20
28510;BME280;15723;55.684;37.928;2023-04-19T10:35:17;100968.56;;;19.01;24.37
28510;BME280;15723;55.684;37.928;2023-04-19T10:38:13;100966.63;;;19.24;24.15
28510;BME280;15723;55.684;37.928;2023-04-19T10:43:18;100965.97;;;19.32;24.02
28510;BME280;15723;55.684;37.928;2023-04-19T10:45:45;100971.88;;;19.27;23.67
28510;BME280;15723;55.684;37.928;2023-04-19T10:51:10;100970.38;;;19.23;23.58
28510;BME280;15723;55.684;37.928;2023-04-19T10:56:16;100950.09;;;20.41;22.26
28510;BME280;15723;55.684;37.928;2023-04-19T11:01:34;100955.28;;;19.93;23.39
28510;BME280;15723;55.684;37.928;2023-04-19T11:04:09;100943.13;;;20.16;22.78
28510;BME280;15723;55.684;37.928;2023-04-19T11:07:00;100960.47;;;19.32;23.50
28510;BME280;15723;55.684;37.928;2023-04-19T11:12:09;100941.00;;;19.67;23.73
28510;BME280;15723;55.684;37.928;2023-04-19T11:14:40;100933.75;;;19.87;22.99
28510;BME280;15723;55.684;37.928;2023-04-19T11:17:18;100936.56;;;19.44;23.33
28510;BME280;15723;55.684;37.928;2023-04-19T11:19:58;100936.47;;;19.66;23.27
28510;BME280;15723;55.684;37.928;2023-04-19T11:22:34;100930.16;;;19.54;23.20
28510;BME280;15723;55.684;37.928;2023-04-19T11:25:15;100925.94;;;19.39;23.44
28510;BME280;15723;55.684;37.928;2023-04-19T11:27:47;100942.47;;;18.62;23.79
28510;BME280;15723;55.684;37.928;2023-04-19T11:30:28;100922.53;;;19.03;23.50
28510;BME280;15723;55.684;37.928;2023-04-19T11:32:56;100930.28;;;19.53;23.40
28510;BME280;15723;55.684;37.928;2023-04-19T11:35:27;100925.19;;;19.37;23.63
28510;BME280;15723;55.684;37.928;2023-04-19T11:37:57;100927.63;;;19.62;23.16
28510;BME280;15723;55.684;37.928;2023-04-19T11:40:24;100923.22;;;19.28;23.11
28510;BME280;15723;55.684;37.928;2023-04-19T11:42:58;100918.81;;;19.36;22.85
28510;BME280;15723;55.684;37.928;2023-04-19T11:45:31;100932.47;;;18.72;23.69
28510;BME280;15723;55.684;37.928;2023-04-19T11:47:57;100931.91;;;18.56;23.76
28510;BME280;15723;55.684;37.928;2023-04-19T11:50:38;100924.72;;;18.66;23.46
28510;BME280;15723;55.684;37.928;2023-04-19T11:53:14;100919.19;;;18.78;23.59
28510;BME280;15723;55.684;37.928;2023-04-19T11:55:48;100916.13;;;19.14;23.29
28510;BME280;15723;55.684;37.928;2023-04-19T12:00:55;100913.00;;;19.51;23.23
28510;BME280;15723;55.684;37.928;2023-04-19T12:03:25;100909.50;;;19.17;23.23
28510;BME280;15723;55.684;37.928;2023-04-19T12:05:55;100905.91;;;19.69;23.11
28510;BME280;15723;55.684;37.928;2023-04-19T12:08:54;100908.44;;;18.97;23.04
28510;BME280;15723;55.684;37.928;2023-04-19T12:11:23;100913.78;;;19.10;22.95
28510;BME280;15723;55.684;37.928;2023-04-19T12:14:08;100908.06;;;19.33;22.85
28510;BME280;15723;55.684;37.928;2023-04-19T12:16:34;100910.75;;;19.13;22.85
28510;BME280;15723;55.684;37.928;2023-04-19T12:19:10;100902.41;;;19.03;23.01
28510;BME280;15723;55.684;37.928;2023-04-19T12:21:40;100914.59;;;18.67;23.10
28510;BME280;15723;55.684;37.928;2023-04-19T12:24:07;100903.94;;;18.85;23.02
28510;BME280;15723;55.684;37.928;2023-04-19T12:26:33;100908.66;;;18.94;22.96
28510;BME280;15723;55.684;37.928;2023-04-19T12:29:01;100905.34;;;19.22;22.88
28510;BME280;15723;55.684;37.928;2023-04-19T12:31:29;100900.34;;;18.73;23.24
28510;BME280;15723;55.684;37.928;2023-04-19T12:33:57;100888.91;;;19.00;23.08
28510;BME280;15723;55.684;37.928;2023-04-19T12:36:23;100894.47;;;19.21;22.65
28510;BME280;15723;55.684;37.928;2023-04-19T12:38:49;100903.81;;;18.86;22.88
28510;BME280;15723;55.684;37.928;2023-04-19T12:41:16;100886.41;;;18.86;22.92
28510;BME280;15723;55.684;37.928;2023-04-19T12:43:42;100881.75;;;19.09;22.56
28510;BME280;15723;55.684;37.928;2023-04-19T12:46:09;100884.06;;;19.24;22.54
28510;BME280;15723;55.684;37.928;2023-04-19T12:48:35;100881.66;;;18.88;22.89
28510;BME280;15723;55.684;37.928;2023-04-19T12:51:01;100889.47;;;19.15;22.81
28510;BME280;15723;55.684;37.928;2023-04-19T12:53:28;100881.28;;;19.03;22.61
28510;BME280;15723;55.684;37.928;2023-04-19T12:55:54;100877.66;;;18.92;22.91
28510;BME280;15723;55.684;37.928;2023-04-19T12:58:20;100884.38;;;19.10;22.85
28510;BME280;15723;55.684;37.928;2023-04-19T13:00:48;100882.78;;;18.96;22.86
28510;BME280;15723;55.684;37.928;2023-04-19T13:03:14;100876.16;;;18.99;22.52
28510;BME280;15723;55.684;37.928;2023-04-19T13:05:41;100879.22;;;18.62;22.67
28510;BME280;15723;55.684;37.928;2023-04-19T13:08:07;100878.66;;;18.57;22.95